createdAt,value
2023-05-20T00:00:04.516Z,9.60
2023-05-20T00:01:04.511Z,9.30
2023-05-20T00:02:04.495Z,9.20
2023-05-20T00:03:04.567Z,9.00
2023-05-20T00:04:04.616Z,8.60
2023-05-20T00:05:04.607Z,9.50
2023-05-20T00:06:04.441Z,9.00
2023-05-20T00:07:04.435Z,8.60
2023-05-20T00:08:04.422Z,8.90
2023-05-20T00:09:04.417Z,9.50
2023-05-20T00:10:04.387Z,8.90
2023-05-20T00:11:04.367Z,9.20
2023-05-20T00:12:04.356Z,9.00
2023-05-20T00:13:04.386Z,9.80
2023-05-20T00:14:04.352Z,10.20
2023-05-20T00:15:04.319Z,9.60
2023-05-20T00:16:04.313Z,8.90
2023-05-20T00:17:04.295Z,9.20
2023-05-20T00:18:04.456Z,8.60
2023-05-20T00:19:04.288Z,8.50
2023-05-20T00:20:04.249Z,8.60
2023-05-20T00:21:04.243Z,8.60
2023-05-20T00:22:04.228Z,10.20
2023-05-20T00:23:04.228Z,10.00
2023-05-20T00:24:04.217Z,9.80
2023-05-20T00:25:04.188Z,9.50
2023-05-20T00:26:04.174Z,9.00
2023-05-20T00:27:04.189Z,9.90
2023-05-20T00:28:04.141Z,10.40
2023-05-20T00:29:04.135Z,10.20
2023-05-20T00:30:04.118Z,10.30
2023-05-20T00:31:04.109Z,10.90
2023-05-20T00:32:04.136Z,10.20
2023-05-20T00:33:04.097Z,10.20
2023-05-20T00:34:04.062Z,10.00
2023-05-20T00:35:04.067Z,9.70
2023-05-20T00:36:04.046Z,11.10
2023-05-20T00:37:04.036Z,9.80
2023-05-20T00:38:04.006Z,10.00
2023-05-20T00:39:04.005Z,10.80
2023-05-20T00:40:03.994Z,10.20
2023-05-20T00:41:03.992Z,11.20
2023-05-20T00:42:03.963Z,11.10
2023-05-20T00:43:03.955Z,10.50
2023-05-20T00:44:03.933Z,11.20
2023-05-20T00:45:03.929Z,12.30
2023-05-20T00:46:03.932Z,11.00
2023-05-20T00:47:03.890Z,11.10
2023-05-20T00:48:03.914Z,11.30
2023-05-20T00:49:03.871Z,11.70
2023-05-20T00:50:03.853Z,11.10
2023-05-20T00:51:03.847Z,11.10
2023-05-20T00:52:03.811Z,10.50
2023-05-20T00:53:03.811Z,10.50
2023-05-20T00:54:03.792Z,11.50
2023-05-20T00:55:03.802Z,10.60
2023-05-20T00:56:03.778Z,11.20
2023-05-20T00:57:03.774Z,11.50
2023-05-20T00:58:03.781Z,11.60
2023-05-20T00:59:03.740Z,11.30
2023-05-20T01:00:03.725Z,11.70
2023-05-20T01:01:03.732Z,11.30
2023-05-20T01:02:03.718Z,10.90
2023-05-20T01:03:03.772Z,11.00
2023-05-20T01:04:03.677Z,11.10
2023-05-20T01:05:03.692Z,10.30
2023-05-20T01:06:03.643Z,11.50
2023-05-20T01:07:03.627Z,10.60
2023-05-20T01:08:03.633Z,11.20
2023-05-20T01:09:03.619Z,11.30
2023-05-20T01:10:03.585Z,11.10
2023-05-20T01:11:03.593Z,11.20
2023-05-20T01:12:03.548Z,9.40
2023-05-20T01:13:03.550Z,11.90
2023-05-20T01:14:03.552Z,11.50
2023-05-20T01:15:03.530Z,11.20
2023-05-20T01:16:03.534Z,10.20
2023-05-20T01:17:03.487Z,10.90
2023-05-20T01:18:03.493Z,10.80
2023-05-20T01:19:03.510Z,11.00
2023-05-20T01:20:03.464Z,10.80
2023-05-20T01:21:03.459Z,10.40
2023-05-20T01:22:03.414Z,11.00
2023-05-20T01:23:03.422Z,10.10
2023-05-20T01:24:03.404Z,11.30
2023-05-20T01:25:03.394Z,10.80
2023-05-20T01:26:03.364Z,10.90
2023-05-20T01:27:03.357Z,10.30
2023-05-20T01:28:03.349Z,10.00
2023-05-20T01:29:03.334Z,9.70
2023-05-20T01:30:03.311Z,8.70
2023-05-20T01:31:03.359Z,10.50
2023-05-20T01:32:03.288Z,10.90
2023-05-20T01:33:03.339Z,10.70
2023-05-20T01:34:03.251Z,10.80
2023-05-20T01:35:03.265Z,10.80
2023-05-20T01:36:03.237Z,10.20
2023-05-20T01:37:03.239Z,10.70
2023-05-20T01:38:03.217Z,10.20
2023-05-20T01:39:03.197Z,10.80
2023-05-20T01:40:03.165Z,10.60
2023-05-20T01:41:03.175Z,11.30
2023-05-20T01:42:03.164Z,10.80
2023-05-20T01:43:03.151Z,11.10
2023-05-20T01:44:03.126Z,11.00
2023-05-20T01:45:03.136Z,10.20
2023-05-20T01:46:03.187Z,10.00
2023-05-20T01:47:03.120Z,10.60
2023-05-20T01:48:03.160Z,9.90
2023-05-20T01:49:03.066Z,11.30
2023-05-20T01:50:03.052Z,11.10
2023-05-20T01:51:03.048Z,11.50
2023-05-20T01:52:03.022Z,12.30
2023-05-20T01:53:03.006Z,11.90
2023-05-20T01:54:02.986Z,12.30
2023-05-20T01:55:02.998Z,12.60
2023-05-20T01:56:02.972Z,12.90
2023-05-20T01:57:02.987Z,12.10
2023-05-20T01:58:02.941Z,13.10
2023-05-20T01:59:02.929Z,13.30
2023-05-20T02:00:02.922Z,12.10
2023-05-20T02:01:03.050Z,11.80
2023-05-20T02:02:02.910Z,11.40
2023-05-20T02:03:02.928Z,13.70
2023-05-20T02:04:02.866Z,13.80
2023-05-20T02:05:02.847Z,13.70
2023-05-20T02:06:02.892Z,12.80
2023-05-20T02:07:02.797Z,13.90
2023-05-20T02:08:02.812Z,14.20
2023-05-20T02:09:02.805Z,15.90
2023-05-20T02:10:02.796Z,14.40
2023-05-20T02:11:02.779Z,14.50
2023-05-20T02:12:02.767Z,14.70
2023-05-20T02:13:02.749Z,15.20
2023-05-20T02:14:02.733Z,14.20
2023-05-20T02:15:02.721Z,14.10
2023-05-20T02:16:02.734Z,14.30
2023-05-20T02:17:02.694Z,15.80
2023-05-20T02:18:02.767Z,16.30
2023-05-20T02:19:02.716Z,13.40
2023-05-20T02:20:02.671Z,15.30
2023-05-20T02:21:02.657Z,15.70
2023-05-20T02:22:02.632Z,16.50
2023-05-20T02:23:02.632Z,17.40
2023-05-20T02:24:02.604Z,16.40
2023-05-20T02:25:02.587Z,17.30
2023-05-20T02:26:02.594Z,16.80
2023-05-20T02:27:02.554Z,17.40
2023-05-20T02:28:02.553Z,16.20
2023-05-20T02:29:02.548Z,18.20
2023-05-20T02:30:02.566Z,17.70
2023-05-20T02:31:02.492Z,17.70
2023-05-20T02:32:02.490Z,16.50
2023-05-20T02:33:02.486Z,16.10
2023-05-20T02:34:02.548Z,17.60
2023-05-20T02:35:02.458Z,17.60
2023-05-20T02:36:02.453Z,17.90
2023-05-20T02:37:02.428Z,17.10
2023-05-20T02:38:02.410Z,16.90
2023-05-20T02:39:02.415Z,18.20
2023-05-20T02:40:02.401Z,17.10
2023-05-20T02:41:02.380Z,18.00
2023-05-20T02:42:02.366Z,17.40
2023-05-20T02:43:02.356Z,17.80
2023-05-20T02:44:02.348Z,16.90
2023-05-20T02:45:02.329Z,18.40
2023-05-20T02:46:02.331Z,18.20
2023-05-20T02:47:02.291Z,17.90
2023-05-20T02:48:02.385Z,17.60
2023-05-20T02:49:02.274Z,19.10
2023-05-20T02:50:02.262Z,17.70
2023-05-20T02:51:02.244Z,18.70
2023-05-20T02:52:02.234Z,18.30
2023-05-20T02:53:02.225Z,18.00
2023-05-20T02:54:02.215Z,19.40
2023-05-20T02:55:02.192Z,18.10
2023-05-20T02:56:02.182Z,18.60
2023-05-20T02:57:02.139Z,20.70
2023-05-20T02:58:02.170Z,17.90
2023-05-20T02:59:02.136Z,19.60
2023-05-20T03:00:02.121Z,19.60
2023-05-20T03:01:02.134Z,19.50
2023-05-20T03:02:02.210Z,20.50
2023-05-20T03:03:02.146Z,19.50
2023-05-20T03:04:02.105Z,20.20
2023-05-20T03:05:02.060Z,21.20
2023-05-20T03:06:02.038Z,20.30
2023-05-20T03:07:02.039Z,19.60
2023-05-20T03:08:02.006Z,19.10
2023-05-20T03:09:02.012Z,20.50
2023-05-20T03:10:01.995Z,21.20
2023-05-20T03:11:01.980Z,20.70
2023-05-20T03:12:01.984Z,21.80
2023-05-20T03:13:01.942Z,20.90
2023-05-20T03:14:01.949Z,19.90
2023-05-20T03:15:01.923Z,20.90
2023-05-20T03:16:01.936Z,19.90
2023-05-20T03:17:01.909Z,21.20
2023-05-20T03:18:01.934Z,21.40
2023-05-20T03:19:01.919Z,20.20
2023-05-20T03:20:01.914Z,21.40
2023-05-20T03:21:01.847Z,20.00
2023-05-20T03:22:01.866Z,21.40
2023-05-20T03:23:01.813Z,21.00
2023-05-20T03:24:01.809Z,19.80
2023-05-20T03:25:01.781Z,20.10
2023-05-20T03:26:01.783Z,20.10
2023-05-20T03:27:01.778Z,20.00
2023-05-20T03:28:01.823Z,19.00
2023-05-20T03:29:01.750Z,19.30
2023-05-20T03:30:01.719Z,20.40
2023-05-20T03:31:01.753Z,21.10
2023-05-20T03:32:01.693Z,21.30
2023-05-20T03:33:01.685Z,20.40
2023-05-20T03:34:01.695Z,20.00
2023-05-20T03:35:01.663Z,19.80
2023-05-20T03:36:01.637Z,19.80
2023-05-20T03:37:01.615Z,21.10
2023-05-20T03:38:01.636Z,20.30
2023-05-20T03:39:01.587Z,18.70
2023-05-20T03:40:01.614Z,19.80
2023-05-20T03:41:01.565Z,20.30
2023-05-20T03:42:01.564Z,20.30
2023-05-20T03:43:01.526Z,19.00
2023-05-20T03:44:01.539Z,19.40
2023-05-20T03:45:01.557Z,18.80
2023-05-20T03:46:01.519Z,18.30
2023-05-20T03:47:01.559Z,18.50
2023-05-20T03:48:01.546Z,19.00
2023-05-20T03:49:01.482Z,18.00
2023-05-20T03:50:01.465Z,18.30
2023-05-20T03:51:01.422Z,18.50
2023-05-20T03:52:01.434Z,18.10
2023-05-20T03:53:01.407Z,18.00
2023-05-20T03:54:01.418Z,17.00
2023-05-20T03:55:01.386Z,19.00
2023-05-20T03:56:01.366Z,16.90
2023-05-20T03:57:01.361Z,17.00
2023-05-20T03:58:01.357Z,18.80
2023-05-20T03:59:01.338Z,16.70
2023-05-20T04:00:01.327Z,18.40
2023-05-20T04:01:01.306Z,18.20
2023-05-20T04:02:01.365Z,18.30
2023-05-20T04:03:01.412Z,17.80
2023-05-20T04:04:01.343Z,17.00
2023-05-20T04:05:01.268Z,17.90
2023-05-20T04:06:01.235Z,17.70
2023-05-20T04:07:01.249Z,16.20
2023-05-20T04:08:01.241Z,17.80
2023-05-20T04:09:01.196Z,18.70
2023-05-20T04:10:01.183Z,17.40
2023-05-20T04:11:01.179Z,18.30
2023-05-20T04:12:01.169Z,18.00
2023-05-20T04:13:01.162Z,17.40
2023-05-20T04:14:01.131Z,18.00
2023-05-20T04:15:01.124Z,18.20
2023-05-20T04:16:01.094Z,18.10
2023-05-20T04:17:01.136Z,17.80
2023-05-20T04:18:01.107Z,17.60
2023-05-20T04:19:01.158Z,18.10
2023-05-20T04:20:01.069Z,18.80
2023-05-20T04:21:01.040Z,17.20
2023-05-20T04:22:01.033Z,18.80
2023-05-20T04:23:01.031Z,18.30
2023-05-20T04:24:01.030Z,18.30
2023-05-20T04:25:00.991Z,19.30
2023-05-20T04:26:01.001Z,18.80
2023-05-20T04:27:00.966Z,18.80
2023-05-20T04:28:00.976Z,17.80
2023-05-20T04:29:00.955Z,18.60
2023-05-20T04:30:00.926Z,18.60
2023-05-20T04:31:00.923Z,17.10
2023-05-20T04:32:00.946Z,17.50
2023-05-20T04:33:00.913Z,18.50
2023-05-20T04:34:00.851Z,18.50
2023-05-20T04:35:00.859Z,19.20
2023-05-20T04:36:00.854Z,18.70
2023-05-20T04:37:00.832Z,20.10
2023-05-20T04:38:00.815Z,19.40
2023-05-20T04:39:00.797Z,18.50
2023-05-20T04:40:00.795Z,18.60
2023-05-20T04:41:00.788Z,18.90
2023-05-20T04:42:00.768Z,17.90
2023-05-20T04:43:00.751Z,19.20
2023-05-20T04:44:00.742Z,19.30
2023-05-20T04:45:00.724Z,19.70
2023-05-20T04:46:00.750Z,20.40
2023-05-20T04:47:00.687Z,20.60
2023-05-20T04:48:00.728Z,19.80
2023-05-20T04:49:00.684Z,19.90
2023-05-20T04:50:00.671Z,20.50
2023-05-20T04:51:00.635Z,20.80
2023-05-20T04:52:00.625Z,20.40
2023-05-20T04:53:00.617Z,21.00
2023-05-20T04:54:00.614Z,20.90
2023-05-20T04:55:00.598Z,20.40
2023-05-20T04:56:00.581Z,20.00
2023-05-20T04:57:00.552Z,19.80
2023-05-20T04:58:00.548Z,19.50
2023-05-20T04:59:00.544Z,21.10
2023-05-20T05:00:00.528Z,20.50
2023-05-20T05:01:00.500Z,20.20
2023-05-20T05:02:00.607Z,18.90
2023-05-20T05:03:00.507Z,20.90
2023-05-20T05:04:00.486Z,20.30
2023-05-20T05:05:00.551Z,19.80
2023-05-20T05:06:00.444Z,20.00
2023-05-20T05:07:00.435Z,21.30
2023-05-20T05:08:00.425Z,20.20
2023-05-20T05:09:00.400Z,21.40
2023-05-20T05:10:00.424Z,19.70
2023-05-20T05:11:00.382Z,20.80
2023-05-20T05:12:00.361Z,20.40
2023-05-20T05:13:00.358Z,18.40
2023-05-20T05:14:00.355Z,20.40
2023-05-20T05:15:00.316Z,20.50
2023-05-20T05:16:00.536Z,20.70
2023-05-20T05:17:00.296Z,20.80
2023-05-20T05:18:00.345Z,20.40
2023-05-20T05:19:00.330Z,20.40
2023-05-20T05:20:00.286Z,20.20
2023-05-20T05:21:00.239Z,20.10
2023-05-20T05:22:00.246Z,19.40
2023-05-20T05:23:00.212Z,19.70
2023-05-20T05:24:00.228Z,20.00
2023-05-20T05:25:00.224Z,20.00
2023-05-20T05:26:00.181Z,18.30
2023-05-20T05:27:00.185Z,19.50
2023-05-20T05:28:00.159Z,18.90
2023-05-20T05:29:00.151Z,19.10
2023-05-20T05:30:00.142Z,18.00
2023-05-20T05:31:00.147Z,19.60
2023-05-20T05:32:00.228Z,18.60
2023-05-20T05:33:00.263Z,18.50
2023-05-20T05:34:00.150Z,19.20
2023-05-20T05:35:00.096Z,19.20
2023-05-20T05:36:00.054Z,19.00
2023-05-20T05:37:00.048Z,18.10
2023-05-20T05:38:00.022Z,19.10
2023-05-20T05:38:59.994Z,18.50
2023-05-20T05:40:00.006Z,18.00
2023-05-20T05:40:59.967Z,18.40
2023-05-20T05:41:59.977Z,19.30
2023-05-20T05:42:59.929Z,19.20
2023-05-20T05:43:59.937Z,19.40
2023-05-20T05:44:59.920Z,18.90
2023-05-20T05:45:59.912Z,18.40
2023-05-20T05:46:59.939Z,18.50
2023-05-20T05:47:59.913Z,17.20
2023-05-20T05:48:59.856Z,17.50
2023-05-20T05:49:59.845Z,16.50
2023-05-20T05:50:59.858Z,18.20
2023-05-20T05:51:59.817Z,17.60
2023-05-20T05:52:59.797Z,18.20
2023-05-20T05:53:59.811Z,18.50
2023-05-20T05:54:59.769Z,17.90
2023-05-20T05:55:59.775Z,17.90
2023-05-20T05:56:59.755Z,18.80
2023-05-20T05:57:59.735Z,16.50
2023-05-20T05:58:59.723Z,17.60
2023-05-20T05:59:59.738Z,18.10
2023-05-20T06:00:59.783Z,17.80
2023-05-20T06:01:59.712Z,16.80
2023-05-20T06:02:59.702Z,18.30
2023-05-20T06:03:59.789Z,18.40
2023-05-20T06:04:59.665Z,18.30
2023-05-20T06:05:59.659Z,18.80
2023-05-20T06:06:59.619Z,18.70
2023-05-20T06:07:59.617Z,17.10
2023-05-20T06:08:59.599Z,19.80
2023-05-20T06:09:59.606Z,18.70
2023-05-20T06:10:59.562Z,16.60
2023-05-20T06:11:59.566Z,17.70
2023-05-20T06:12:59.551Z,19.40
2023-05-20T06:13:59.548Z,19.60
2023-05-20T06:14:59.597Z,18.40
2023-05-20T06:15:59.531Z,18.40
2023-05-20T06:16:59.589Z,19.60
2023-05-20T06:17:59.526Z,20.00
2023-05-20T06:19:01.847Z,18.80
2023-05-20T06:19:59.472Z,19.80
2023-05-20T06:20:59.444Z,20.80
2023-05-20T06:21:59.475Z,61.80
2023-05-20T06:22:59.413Z,46.80
2023-05-20T06:23:59.403Z,24.80
2023-05-20T06:24:59.392Z,25.10
2023-05-20T06:25:59.375Z,20.90
2023-05-20T06:26:59.634Z,19.90
2023-05-20T06:27:59.352Z,19.50
2023-05-20T06:28:59.324Z,18.50
2023-05-20T06:29:59.322Z,18.90
2023-05-20T06:30:59.331Z,19.30
2023-05-20T06:31:59.285Z,18.60
2023-05-20T06:32:59.295Z,19.80
2023-05-20T06:33:59.273Z,19.30
2023-05-20T06:34:59.263Z,19.30
2023-05-20T06:35:59.240Z,19.20
2023-05-20T06:36:59.210Z,19.10
2023-05-20T06:37:59.271Z,19.00
2023-05-20T06:38:59.210Z,19.80
2023-05-20T06:39:59.203Z,19.80
2023-05-20T06:40:59.601Z,19.90
2023-05-20T06:42:00.162Z,19.10
2023-05-20T06:43:00.415Z,19.90
2023-05-20T06:43:59.116Z,19.70
2023-05-20T06:45:03.394Z,18.80
2023-05-20T06:45:59.903Z,19.40
2023-05-20T06:47:01.099Z,19.50
2023-05-20T06:47:59.099Z,19.00
2023-05-20T06:48:59.049Z,20.10
2023-05-20T06:49:59.023Z,20.50
2023-05-20T06:50:59.045Z,19.60
2023-05-20T06:51:59.033Z,20.20
2023-05-20T06:52:59.022Z,19.70
2023-05-20T06:53:58.994Z,19.60
2023-05-20T06:54:58.993Z,19.90
2023-05-20T06:55:58.955Z,20.10
2023-05-20T06:56:58.967Z,20.10
2023-05-20T06:57:58.945Z,19.60
2023-05-20T06:58:58.993Z,19.90
2023-05-20T06:59:58.928Z,19.60
2023-05-20T07:00:59.686Z,19.40
2023-05-20T07:01:58.926Z,20.30
2023-05-20T07:02:58.939Z,19.50
2023-05-20T07:03:58.903Z,19.10
2023-05-20T07:04:58.860Z,19.90
2023-05-20T07:05:58.838Z,18.80
2023-05-20T07:06:58.847Z,19.70
2023-05-20T07:07:58.801Z,19.30
2023-05-20T07:08:58.792Z,18.50
2023-05-20T07:09:58.791Z,19.60
2023-05-20T07:10:58.768Z,19.60
2023-05-20T07:11:58.774Z,18.70
2023-05-20T07:12:58.733Z,19.80
2023-05-20T07:13:58.721Z,19.00
2023-05-20T07:14:58.716Z,19.60
2023-05-20T07:15:58.891Z,19.80
2023-05-20T07:16:58.672Z,19.80
2023-05-20T07:17:58.675Z,20.00
2023-05-20T07:18:58.695Z,19.90
2023-05-20T07:19:58.649Z,20.40
2023-05-20T07:20:58.649Z,19.50
2023-05-20T07:21:58.621Z,19.80
2023-05-20T07:22:58.587Z,20.60
2023-05-20T07:23:58.594Z,20.00
2023-05-20T07:24:58.584Z,19.60
2023-05-20T07:25:58.579Z,19.80
2023-05-20T07:26:58.553Z,19.40
2023-05-20T07:27:58.542Z,18.60
2023-05-20T07:28:58.520Z,20.20
2023-05-20T07:29:58.521Z,20.30
2023-05-20T07:30:58.495Z,19.20
2023-05-20T07:31:58.601Z,20.00
2023-05-20T07:32:58.546Z,18.90
2023-05-20T07:33:58.459Z,19.50
2023-05-20T07:34:58.445Z,19.40
2023-05-20T07:35:58.444Z,19.60
2023-05-20T07:36:58.409Z,19.20
2023-05-20T07:37:58.406Z,19.60
2023-05-20T07:39:03.516Z,19.90
2023-05-20T07:39:59.373Z,19.80
2023-05-20T07:40:58.351Z,19.30
2023-05-20T07:41:58.345Z,20.00
2023-05-20T07:42:58.344Z,20.80
2023-05-20T07:43:58.322Z,20.30
2023-05-20T07:44:58.301Z,20.50
2023-05-20T07:45:58.319Z,21.50
2023-05-20T07:46:58.267Z,20.80
2023-05-20T07:47:58.310Z,20.90
2023-05-20T07:48:58.312Z,20.90
2023-05-20T07:49:58.237Z,21.50
2023-05-20T07:50:58.229Z,20.30
2023-05-20T07:51:58.214Z,20.60
2023-05-20T07:52:58.219Z,20.10
2023-05-20T07:53:58.186Z,20.10
2023-05-20T07:54:58.173Z,20.60
2023-05-20T07:55:58.168Z,19.90
2023-05-20T07:56:58.148Z,19.70
2023-05-20T07:57:58.148Z,19.40
2023-05-20T07:58:58.127Z,20.00
2023-05-20T07:59:58.104Z,19.80
2023-05-20T08:00:58.103Z,20.10
2023-05-20T08:01:58.114Z,20.30
2023-05-20T08:02:58.178Z,20.30
2023-05-20T08:03:58.108Z,20.50
2023-05-20T08:04:58.046Z,20.50
2023-05-20T08:05:58.032Z,20.10
2023-05-20T08:06:58.025Z,20.80
2023-05-20T08:07:58.008Z,21.00
2023-05-20T08:08:57.972Z,21.20
2023-05-20T08:09:57.972Z,21.10
2023-05-20T08:10:57.954Z,21.10
2023-05-20T08:11:57.948Z,21.20
2023-05-20T08:12:57.945Z,19.70
2023-05-20T08:13:57.931Z,20.50
2023-05-20T08:14:57.919Z,21.30
2023-05-20T08:15:57.877Z,20.90
2023-05-20T08:16:57.936Z,20.90
2023-05-20T08:17:57.875Z,20.40
2023-05-20T08:18:57.898Z,21.10
2023-05-20T08:19:57.834Z,19.60
2023-05-20T08:20:57.825Z,20.40
2023-05-20T08:21:57.807Z,19.90
2023-05-20T08:22:57.801Z,19.90
2023-05-20T08:23:57.778Z,19.60
2023-05-20T08:24:57.772Z,20.30
2023-05-20T08:25:57.796Z,19.70
2023-05-20T08:26:57.754Z,19.80
2023-05-20T08:27:57.735Z,20.10
2023-05-20T08:28:57.734Z,20.10
2023-05-20T08:29:59.317Z,19.70
2023-05-20T08:30:57.763Z,19.60
2023-05-20T08:31:57.696Z,19.80
2023-05-20T08:32:57.704Z,19.20
2023-05-20T08:33:57.636Z,20.10
2023-05-20T08:34:57.641Z,20.00
2023-05-20T08:35:57.625Z,19.60
2023-05-20T08:36:57.602Z,18.90
2023-05-20T08:37:57.590Z,18.40
2023-05-20T08:38:57.645Z,19.10
2023-05-20T08:39:57.572Z,19.10
2023-05-20T08:40:57.602Z,19.60
2023-05-20T08:41:57.540Z,19.40
2023-05-20T08:42:57.524Z,20.60
2023-05-20T08:43:57.499Z,19.50
2023-05-20T08:44:57.517Z,19.10
2023-05-20T08:45:57.521Z,20.00
2023-05-20T08:46:57.639Z,18.90
2023-05-20T08:47:57.516Z,18.20
2023-05-20T08:48:57.458Z,17.90
2023-05-20T08:49:57.433Z,18.90
2023-05-20T08:50:57.476Z,18.80
2023-05-20T08:51:57.418Z,17.20
2023-05-20T08:52:57.395Z,16.00
2023-05-20T08:53:57.389Z,16.70
2023-05-20T08:54:57.374Z,18.00
2023-05-20T08:55:58.777Z,17.50
2023-05-20T08:56:57.339Z,16.80
2023-05-20T08:57:57.325Z,18.20
2023-05-20T08:58:57.388Z,17.60
2023-05-20T08:59:57.306Z,16.40
2023-05-20T09:00:57.294Z,17.10
2023-05-20T09:01:57.313Z,17.60
2023-05-20T09:02:59.365Z,18.60
2023-05-20T09:03:57.286Z,18.20
2023-05-20T09:04:57.291Z,18.30
2023-05-20T09:05:57.216Z,16.40
2023-05-20T09:06:57.212Z,17.00
2023-05-20T09:07:57.204Z,17.70
2023-05-20T09:08:57.195Z,17.80
2023-05-20T09:09:57.179Z,16.00
2023-05-20T09:10:57.140Z,17.90
2023-05-20T09:11:57.138Z,17.00
2023-05-20T09:12:57.142Z,17.30
2023-05-20T09:13:57.110Z,18.30
2023-05-20T09:14:57.128Z,17.90
2023-05-20T09:15:57.096Z,17.50
2023-05-20T09:16:57.187Z,16.40
2023-05-20T09:17:57.117Z,15.80
2023-05-20T09:18:57.162Z,18.30
2023-05-20T09:19:57.063Z,17.80
2023-05-20T09:20:57.019Z,17.70
2023-05-20T09:21:57.007Z,17.40
2023-05-20T09:22:57.013Z,16.60
2023-05-20T09:23:56.978Z,17.20
2023-05-20T09:24:56.988Z,18.30
2023-05-20T09:25:56.948Z,16.90
2023-05-20T09:26:56.962Z,17.20
2023-05-20T09:27:56.941Z,17.00
2023-05-20T09:28:56.925Z,16.60
2023-05-20T09:29:56.906Z,17.70
2023-05-20T09:30:56.901Z,18.50
2023-05-20T09:31:56.993Z,18.30
2023-05-20T09:32:56.931Z,17.30
2023-05-20T09:33:56.846Z,17.40
2023-05-20T09:34:56.846Z,17.00
2023-05-20T09:35:56.849Z,16.80
2023-05-20T09:36:56.837Z,16.70
2023-05-20T09:37:56.786Z,17.50
2023-05-20T09:38:56.789Z,16.80
2023-05-20T09:39:56.765Z,16.50
2023-05-20T09:40:56.785Z,16.70
2023-05-20T09:41:56.805Z,17.50
2023-05-20T09:42:56.721Z,18.00
2023-05-20T09:43:56.715Z,18.20
2023-05-20T09:44:56.732Z,17.90
2023-05-20T09:45:56.757Z,17.80
2023-05-20T09:46:56.667Z,17.70
2023-05-20T09:47:56.701Z,17.00
2023-05-20T09:48:56.659Z,17.40
2023-05-20T09:49:56.665Z,17.80
2023-05-20T09:50:56.648Z,16.90
2023-05-20T09:51:56.613Z,17.20
2023-05-20T09:52:56.592Z,18.00
2023-05-20T09:53:56.587Z,18.60
2023-05-20T09:54:56.580Z,17.90
2023-05-20T09:55:56.576Z,17.60
2023-05-20T09:56:56.534Z,16.70
2023-05-20T09:57:56.589Z,16.80
2023-05-20T09:58:56.522Z,17.60
2023-05-20T09:59:56.521Z,17.80
2023-05-20T10:00:56.498Z,18.20
2023-05-20T10:01:56.592Z,17.10
2023-05-20T10:02:56.806Z,17.50
2023-05-20T10:03:56.571Z,16.80
2023-05-20T10:04:56.467Z,16.20
2023-05-20T10:05:56.468Z,15.80
2023-05-20T10:06:56.431Z,16.70
2023-05-20T10:07:56.448Z,16.90
2023-05-20T10:08:57.320Z,16.60
2023-05-20T10:09:56.461Z,16.90
2023-05-20T10:10:56.347Z,16.70
2023-05-20T10:11:56.337Z,18.50
2023-05-20T10:12:56.333Z,18.40
2023-05-20T10:13:56.371Z,17.00
2023-05-20T10:14:56.323Z,17.00
2023-05-20T10:15:56.348Z,17.00
2023-05-20T10:16:56.287Z,16.80
2023-05-20T10:17:56.310Z,16.40
2023-05-20T10:18:56.391Z,17.00
2023-05-20T10:19:56.233Z,16.10
2023-05-20T10:20:56.231Z,15.10
2023-05-20T10:21:56.215Z,16.20
2023-05-20T10:22:56.205Z,16.50
2023-05-20T10:23:56.187Z,15.50
2023-05-20T10:24:56.172Z,17.50
2023-05-20T10:25:56.154Z,17.30
2023-05-20T10:26:56.147Z,17.20
2023-05-20T10:27:56.140Z,17.20
2023-05-20T10:28:56.128Z,16.50
2023-05-20T10:29:56.107Z,16.80
2023-05-20T10:30:56.095Z,17.50
2023-05-20T10:31:56.124Z,17.30
2023-05-20T10:32:56.321Z,17.40
2023-05-20T10:33:56.063Z,17.60
2023-05-20T10:34:56.033Z,16.90
2023-05-20T10:35:56.024Z,16.70
2023-05-20T10:36:56.013Z,16.50
2023-05-20T10:37:56.015Z,16.10
2023-05-20T10:38:55.983Z,15.40
2023-05-20T10:39:55.974Z,16.30
2023-05-20T10:40:55.950Z,16.40
2023-05-20T10:41:55.947Z,17.40
2023-05-20T10:42:55.940Z,17.40
2023-05-20T10:43:55.924Z,16.20
2023-05-20T10:44:55.901Z,16.70
2023-05-20T10:45:55.940Z,15.40
2023-05-20T10:47:56.018Z,16.90
2023-05-20T10:48:56.063Z,16.80
2023-05-20T10:49:55.828Z,16.90
2023-05-20T10:50:55.834Z,16.90
2023-05-20T10:51:55.834Z,16.10
2023-05-20T10:52:55.797Z,17.30
2023-05-20T10:53:55.784Z,16.50
2023-05-20T10:54:55.768Z,17.00
2023-05-20T10:55:55.767Z,17.60
2023-05-20T10:56:55.757Z,17.00
2023-05-20T10:57:55.732Z,17.40
2023-05-20T10:58:55.718Z,16.40
2023-05-20T10:59:55.752Z,16.80
2023-05-20T11:00:55.696Z,16.40
2023-05-20T11:01:55.701Z,16.10
2023-05-20T11:02:55.711Z,16.50
2023-05-20T11:03:55.765Z,16.10
2023-05-20T11:04:55.650Z,15.90
2023-05-20T11:05:55.651Z,16.90
2023-05-20T11:06:55.614Z,16.50
2023-05-20T11:07:55.603Z,16.00
2023-05-20T11:08:55.598Z,15.20
2023-05-20T11:09:55.610Z,16.20
2023-05-20T11:10:55.562Z,15.70
2023-05-20T11:11:55.554Z,16.10
2023-05-20T11:12:55.592Z,16.30
2023-05-20T11:13:55.527Z,16.70
2023-05-20T11:14:55.496Z,16.70
2023-05-20T11:15:55.629Z,17.60
2023-05-20T11:16:55.500Z,16.50
2023-05-20T11:17:55.538Z,17.40
2023-05-20T11:18:55.504Z,16.30
2023-05-20T11:19:55.472Z,16.60
2023-05-20T11:20:55.444Z,17.10
2023-05-20T11:21:55.420Z,16.50
2023-05-20T11:22:55.423Z,17.00
2023-05-20T11:23:55.386Z,16.40
2023-05-20T11:24:55.384Z,16.40
2023-05-20T11:25:55.363Z,15.70
2023-05-20T11:26:55.360Z,15.70
2023-05-20T11:27:55.328Z,16.10
2023-05-20T11:28:55.321Z,15.60
2023-05-20T11:29:55.341Z,15.30
2023-05-20T11:30:55.291Z,16.70
2023-05-20T11:31:55.399Z,15.90
2023-05-20T11:32:55.306Z,16.80
2023-05-20T11:33:55.306Z,16.10
2023-05-20T11:34:55.257Z,16.40
2023-05-20T11:35:55.233Z,16.90
2023-05-20T11:36:55.210Z,17.40
2023-05-20T11:37:55.211Z,17.40
2023-05-20T11:38:55.206Z,16.90
2023-05-20T11:39:55.825Z,16.90
2023-05-20T11:40:55.413Z,16.40
2023-05-20T11:41:55.155Z,16.20
2023-05-20T11:42:55.140Z,16.00
2023-05-20T11:43:55.162Z,16.10
2023-05-20T11:44:55.097Z,17.40
2023-05-20T11:45:55.131Z,17.00
2023-05-20T11:46:55.065Z,16.40
2023-05-20T11:47:55.142Z,17.20
2023-05-20T11:48:55.057Z,17.30
2023-05-20T11:49:55.054Z,17.90
2023-05-20T11:50:55.026Z,17.50
2023-05-20T11:51:55.030Z,16.90
2023-05-20T11:52:55.005Z,17.90
2023-05-20T11:53:54.989Z,18.00
2023-05-20T11:54:54.978Z,17.50
2023-05-20T11:55:54.950Z,17.10
2023-05-20T11:56:54.953Z,17.60
2023-05-20T11:57:54.947Z,17.10
2023-05-20T11:58:54.910Z,17.60
2023-05-20T11:59:54.899Z,16.20
2023-05-20T12:01:02.341Z,16.70
2023-05-20T12:01:55.889Z,16.70
2023-05-20T12:02:54.951Z,17.50
2023-05-20T12:03:54.996Z,17.20
2023-05-20T12:04:54.917Z,17.10
2023-05-20T12:05:54.836Z,17.40
2023-05-20T12:06:54.829Z,16.80
2023-05-20T12:07:56.468Z,16.80
2023-05-20T12:08:54.775Z,17.70
2023-05-20T12:09:54.814Z,16.90
2023-05-20T12:10:54.781Z,17.20
2023-05-20T12:11:54.765Z,16.30
2023-05-20T12:12:54.793Z,15.80
2023-05-20T12:13:54.719Z,16.10
2023-05-20T12:14:54.711Z,16.60
2023-05-20T12:15:54.733Z,16.80
2023-05-20T12:16:54.689Z,16.60
2023-05-20T12:17:54.773Z,17.50
2023-05-20T12:18:54.681Z,17.70
2023-05-20T12:19:54.637Z,17.90
2023-05-20T12:20:54.687Z,17.20
2023-05-20T12:21:54.624Z,17.90
2023-05-20T12:22:54.609Z,17.10
2023-05-20T12:23:54.600Z,17.00
2023-05-20T12:24:55.393Z,17.10
2023-05-20T12:25:54.577Z,17.00
2023-05-20T12:26:54.543Z,16.90
2023-05-20T12:27:54.556Z,16.50
2023-05-20T12:28:54.537Z,17.10
2023-05-20T12:29:54.519Z,16.90
2023-05-20T12:30:54.511Z,16.90
2023-05-20T12:31:54.516Z,16.90
2023-05-20T12:32:54.485Z,17.10
2023-05-20T12:33:54.458Z,17.00
2023-05-20T12:34:54.478Z,16.10
2023-05-20T12:35:54.449Z,16.80
2023-05-20T12:36:54.432Z,16.60
2023-05-20T12:37:54.408Z,17.40
2023-05-20T12:38:54.377Z,17.20
2023-05-20T12:39:54.410Z,16.90
2023-05-20T12:40:54.349Z,16.80
2023-05-20T12:41:54.346Z,16.80
2023-05-20T12:42:54.328Z,17.20
2023-05-20T12:43:54.393Z,16.70
2023-05-20T12:44:54.335Z,16.70
2023-05-20T12:45:54.296Z,17.20
2023-05-20T12:46:54.370Z,17.20
2023-05-20T12:47:54.310Z,16.20
2023-05-20T12:48:54.257Z,16.60
2023-05-20T12:49:54.273Z,16.50
2023-05-20T12:50:54.221Z,16.30
2023-05-20T12:51:54.213Z,15.90
2023-05-20T12:52:54.230Z,15.90
2023-05-20T12:53:54.198Z,17.00